Time;durP1;ratioP1;P1;durP2;ratioP2;P2;SDS_P1;SDS_P2;PMS_P1;PMS_P2;Temp;Humidity;BMP_temperature;BMP_pressure;BME280_temperature;BME280_humidity;BME280_pressure;Samples;Min_cycle;Max_cycle;Signal;HPM_P1;HPM_P2
2022/12/10 00:00:17;;;;;;;22.60;9.95;;;;;;;7.52;75.63;94184.88;5031173;28;20566;-69
2022/12/10 00:02:42;;;;;;;19.10;10.00;;;;;;;7.60;75.47;94179.06;5050893;28;20029;-68
2022/12/10 00:05:08;;;;;;;21.42;9.80;;;;;;;7.50;75.67;94160.91;5050224;28;20404;-68
2022/12/10 00:07:33;;;;;;;26.63;11.88;;;;;;;7.67;75.41;94174.22;5044063;28;20389;-68
2022/12/10 00:10:00;;;;;;;18.77;9.18;;;;;;;7.57;75.59;94169.78;5032444;28;20060;-68
2022/12/10 00:12:25;;;;;;;16.00;9.32;;;;;;;7.61;75.80;94166.00;5035598;28;20029;-68
2022/12/10 00:14:51;;;;;;;20.92;9.70;;;;;;;7.66;75.75;94159.63;5034114;28;20037;-68
2022/12/10 00:17:16;;;;;;;21.63;9.02;;;;;;;7.62;75.66;94156.50;5050663;28;20044;-68
2022/12/10 00:19:41;;;;;;;20.33;9.35;;;;;;;7.52;76.17;94143.50;5052210;28;20446;-68
2022/12/10 00:22:07;;;;;;;17.10;8.75;;;;;;;7.39;75.95;94120.41;5046359;28;20021;-68
2022/12/10 00:24:32;;;;;;;27.30;16.52;;;;;;;7.46;76.33;94119.91;5050526;28;20029;-68
2022/12/10 00:26:58;;;;;;;20.65;11.45;;;;;;;7.51;76.72;94139.25;5033751;28;20044;-68
2022/12/10 00:29:23;;;;;;;35.38;14.98;;;;;;;7.47;77.25;94147.41;5050582;28;20471;-68
2022/12/10 00:31:49;;;;;;;40.53;18.17;;;;;;;7.48;76.94;94146.47;5038480;28;20299;-68
2022/12/10 00:34:14;;;;;;;30.38;13.88;;;;;;;7.57;76.64;94143.94;5031925;28;20037;-68
2022/12/10 00:36:46;;;;;;;24.27;12.95;;;;;;;7.62;76.26;94164.25;5030423;28;20041;-68
2022/12/10 00:39:13;;;;;;;21.67;11.93;;;;;;;7.62;76.23;94159.06;5014356;28;20047;-68
2022/12/10 00:41:38;;;;;;;26.20;12.65;;;;;;;7.70;75.76;94153.28;5031763;28;20155;-68
2022/12/10 00:44:04;;;;;;;28.08;12.98;;;;;;;7.71;75.93;94155.72;5030341;28;20159;-68
2022/12/10 00:46:30;;;;;;;25.63;13.10;;;;;;;7.66;76.37;94152.72;5030079;28;20026;-68
2022/12/10 00:48:55;;;;;;;25.58;14.32;;;;;;;7.72;75.87;94165.16;5013821;28;20389;-68
2022/12/10 00:51:22;;;;;;;23.92;13.75;;;;;;;7.76;75.55;94152.78;5031531;28;20040;-69
2022/12/10 00:53:50;;;;;;;25.85;12.85;;;;;;;7.66;76.08;94152.72;5030090;28;20091;-68
2022/12/10 00:56:18;;;;;;;22.05;12.27;;;;;;;7.77;75.71;94155.25;5031313;28;20388;-69
2022/12/10 00:58:44;;;;;;;19.83;11.98;;;;;;;7.79;75.39;94155.09;5038621;28;20115;-68
2022/12/10 01:01:18;;;;;;;20.92;11.98;;;;;;;7.66;75.78;94144.13;5049901;28;20605;-69
2022/12/10 01:03:44;;;;;;;23.95;11.25;;;;;;;7.69;75.66;94149.03;5049968;28;20033;-68
2022/12/10 01:06:18;;;;;;;21.88;11.93;;;;;;;7.81;75.47;94158.41;5051071;28;20040;-69
2022/12/10 01:08:44;;;;;;;24.85;11.75;;;;;;;7.80;75.57;94155.00;5017274;28;20061;-68
2022/12/10 01:11:11;;;;;;;23.17;12.60;;;;;;;7.78;75.33;94151.72;5049904;28;20414;-69
2022/12/10 01:13:36;;;;;;;27.45;11.68;;;;;;;7.74;75.60;94157.25;5033484;28;20488;-68
2022/12/10 01:16:06;;;;;;;24.25;10.82;;;;;;;7.77;75.59;94164.75;5049605;28;20111;-68
2022/12/10 01:18:31;;;;;;;18.95;11.00;;;;;;;7.86;75.42;94169.19;5029752;28;20030;-68
2022/12/10 01:21:02;;;;;;;22.55;10.95;;;;;;;7.91;75.52;94161.88;5013249;28;20037;-68
2022/12/10 01:23:27;;;;;;;17.30;10.15;;;;;;;7.83;75.98;94148.75;5030970;28;20025;-68
2022/12/10 01:25:53;;;;;;;18.77;9.63;;;;;;;7.90;75.62;94154.22;5035929;28;20426;-68
2022/12/10 01:28:18;;;;;;;19.10;8.88;;;;;;;7.97;75.51;94150.19;5050985;28;20036;-69
2022/12/10 01:30:44;;;;;;;16.55;9.25;;;;;;;7.99;75.12;94133.56;5050882;28;20432;-68
2022/12/10 01:33:09;;;;;;;19.05;9.23;;;;;;;8.01;75.45;94136.88;5032888;28;20489;-68
2022/12/10 01:35:38;;;;;;;16.40;8.77;;;;;;;8.02;75.16;94128.19;5021411;28;20495;-68
2022/12/10 01:38:03;;;;;;;16.73;8.65;;;;;;;8.10;75.07;94118.94;5013062;28;20044;-68
2022/12/10 01:40:30;;;;;;;20.25;8.35;;;;;;;8.09;75.17;94132.84;5029938;28;20029;-68
2022/12/10 01:42:55;;;;;;;16.63;8.57;;;;;;;8.07;75.17;94128.59;5029534;28;20048;-68
2022/12/10 01:45:21;;;;;;;13.82;7.55;;;;;;;8.10;75.40;94124.13;5045987;28;20033;-68
2022/12/10 01:47:47;;;;;;;16.27;8.38;;;;;;;8.02;75.59;94130.75;5050576;28;20083;-68
2022/12/10 01:50:12;;;;;;;17.95;8.70;;;;;;;8.06;75.91;94142.47;5033067;28;20480;-68
2022/12/10 01:52:38;;;;;;;17.63;9.85;;;;;;;8.07;75.31;94128.59;5047421;28;20025;-68
2022/12/10 01:55:07;;;;;;;18.60;10.68;;;;;;;8.18;75.70;94137.22;5013133;28;20041;-68
2022/12/10 01:57:33;;;;;;;23.55;11.75;;;;;;;8.17;75.38;94117.50;5013568;28;20550;-69
2022/12/10 02:00:00;;;;;;;26.45;11.57;;;;;;;8.16;75.70;94118.41;5050737;28;20041;-69
2022/12/10 02:02:40;;;;;;;21.90;12.00;;;;;;;8.39;75.15;94117.34;5035007;28;20033;-68
2022/12/10 02:05:23;;;;;;;23.93;11.57;;;;;;;8.35;75.43;94118.50;5036832;28;20037;-68
2022/12/10 02:08:00;;;;;;;18.88;8.88;;;;;;;8.55;75.12;94118.59;5041999;28;20029;-68
2022/12/10 02:10:28;;;;;;;9.50;4.18;;;;;;;8.82;74.29;94105.84;5034932;28;20438;-69
2022/12/10 02:13:08;;;;;;;8.68;3.90;;;;;;;9.30;72.79;94101.69;5051972;28;20566;-69
2022/12/10 02:15:55;;;;;;;8.30;3.58;;;;;;;9.74;71.27;94105.47;5053632;28;20516;-68
2022/12/10 02:18:30;;;;;;;30.02;10.55;;;;;;;10.18;69.34;94099.78;5052734;28;20064;-69
2022/12/10 02:20:58;;;;;;;29.70;9.27;;;;;;;10.57;68.15;94095.25;5028205;28;20044;-68
2022/12/10 02:23:30;;;;;;;7.03;3.30;;;;;;;10.84;66.50;94072.84;5032915;28;20035;-68
2022/12/10 02:26:07;;;;;;;5.80;2.55;;;;;;;11.07;65.93;94081.84;5032854;28;20503;-68
2022/12/10 02:28:39;;;;;;;6.20;2.67;;;;;;;11.31;65.02;94070.84;5032885;28;20021;-68
2022/12/10 02:31:05;;;;;;;7.05;2.95;;;;;;;11.52;63.67;94067.91;5045539;28;20029;-68
2022/12/10 02:33:31;;;;;;;6.57;2.35;;;;;;;11.62;63.74;94060.84;5052757;28;20028;-68
2022/12/10 02:35:56;;;;;;;9.75;3.90;;;;;;;11.71;63.09;94048.72;5052888;28;20037;-68
2022/12/10 02:38:26;;;;;;;9.55;2.80;;;;;;;11.84;62.81;94054.34;5033968;28;20510;-68
2022/12/10 02:40:54;;;;;;;11.43;3.58;;;;;;;11.93;62.39;94042.22;4999807;28;20033;-68
2022/12/10 02:43:20;;;;;;;11.20;4.43;;;;;;;11.94;62.26;94033.44;5016333;28;20037;-69
2022/12/10 02:45:45;;;;;;;8.73;3.85;;;;;;;11.95;62.43;94029.88;5016085;28;20504;-69
2022/12/10 02:48:10;;;;;;;8.82;3.80;;;;;;;12.13;61.79;94026.38;5039268;28;20021;-69
2022/12/10 02:50:36;;;;;;;8.73;3.55;;;;;;;12.15;61.88;94020.06;5035859;28;20538;-69
2022/12/10 02:53:01;;;;;;;8.75;3.22;;;;;;;12.13;61.21;94019.38;5053403;28;20036;-69
2022/12/10 02:55:27;;;;;;;6.85;2.53;;;;;;;12.28;60.89;94030.03;5052421;28;20041;-69
2022/12/10 02:58:15;;;;;;;7.47;2.92;;;;;;;12.33;61.17;94042.59;5031782;28;20077;-68
2022/12/10 03:00:51;;;;;;;7.78;2.70;;;;;;;12.28;60.92;94051.66;5033747;28;20428;-68
2022/12/10 03:03:46;;;;;;;8.65;2.83;;;;;;;12.41;60.63;94056.44;5030702;28;20041;-68
2022/12/10 03:06:21;;;;;;;3.38;2.25;;;;;;;12.50;60.44;94071.13;5033813;28;20064;-69
2022/12/10 03:09:11;;;;;;;8.05;2.95;;;;;;;12.48;60.46;94073.09;5050111;28;20060;-68
2022/12/10 03:11:37;;;;;;;8.18;2.70;;;;;;;12.50;60.18;94065.91;5038121;28;20029;-69
2022/12/10 03:14:35;;;;;;;8.68;2.80;;;;;;;12.61;60.15;94069.22;5034031;28;20502;-69
2022/12/10 03:17:01;;;;;;;7.45;2.90;;;;;;;12.48;60.33;94052.25;5028590;28;20048;-69
2022/12/10 03:19:36;;;;;;;19.42;6.85;;;;;;;12.55;60.12;94057.66;5014100;28;20412;-69
2022/12/10 03:22:03;;;;;;;12.10;3.95;;;;;;;12.59;60.01;94045.09;5053017;28;20021;-69
2022/12/10 03:24:28;;;;;;;7.35;2.40;;;;;;;12.63;59.97;94043.84;5029287;28;20048;-69
2022/12/10 03:26:54;;;;;;;5.03;2.38;;;;;;;12.59;60.09;94053.78;5031752;28;20065;-69
2022/12/10 03:29:22;;;;;;;6.78;2.00;;;;;;;12.60;60.09;94051.97;5015246;28;20029;-68
2022/12/10 03:31:47;;;;;;;4.72;2.00;;;;;;;12.63;60.13;94029.00;5015241;28;20030;-69
2022/12/10 03:34:13;;;;;;;6.93;2.25;;;;;;;12.58;60.00;94031.28;5041719;28;20044;-69
2022/12/10 03:36:38;;;;;;;6.85;2.53;;;;;;;12.61;59.69;94024.94;5051413;28;20037;-69
2022/12/10 03:39:04;;;;;;;4.55;1.88;;;;;;;12.58;59.72;94017.44;5035006;28;20037;-68
2022/12/10 03:41:30;;;;;;;4.30;2.00;;;;;;;12.58;59.90;94020.84;5034865;28;20029;-69
2022/12/10 03:43:57;;;;;;;6.55;2.15;;;;;;;12.53;60.29;94029.13;5019368;28;20106;-68
2022/12/10 03:46:23;;;;;;;6.45;2.17;;;;;;;12.56;59.98;94042.81;5014942;28;20033;-68
2022/12/10 03:48:49;;;;;;;3.63;1.90;;;;;;;12.55;60.04;94039.41;5031388;28;20056;-69
2022/12/10 03:51:14;;;;;;;6.07;2.25;;;;;;;12.65;59.57;94029.69;5050803;28;20491;-68
2022/12/10 03:53:40;;;;;;;4.13;1.83;;;;;;;12.63;59.36;94036.03;5032486;28;20399;-69
2022/12/10 03:56:06;;;;;;;4.57;1.85;;;;;;;12.62;59.80;94036.97;5031005;28;20412;-69
2022/12/10 03:58:31;;;;;;;7.20;3.00;;;;;;;12.56;60.02;94037.63;5031147;28;20418;-68
2022/12/10 04:00:57;;;;;;;16.27;8.85;;;;;;;12.24;60.49;94049.53;5031149;28;20040;-69
2022/12/10 04:03:22;;;;;;;29.15;13.00;;;;;;;11.91;61.51;94043.34;5031518;28;20025;-69
2022/12/10 04:05:48;;;;;;;8.82;5.63;;;;;;;11.60;62.54;94041.16;5014667;28;20449;-69
2022/12/10 04:08:13;;;;;;;7.00;3.28;;;;;;;11.79;62.38;94027.16;5045776;28;20021;-69
2022/12/10 04:10:39;;;;;;;8.55;3.72;;;;;;;11.63;62.45;94002.66;5050242;28;20025;-69
2022/12/10 04:18:32;;;;;;;4.55;2.05;;;;;;;11.99;61.53;93999.94;5051931;28;20043;-69
2022/12/10 04:29:09;;;;;;;8.20;2.20;;;;;;;12.42;60.30;94029.41;5033510;28;20044;-69
2022/12/10 04:31:34;;;;;;;13.00;4.55;;;;;;;12.47;60.20;94028.97;5019353;28;20025;-69
2022/12/10 04:34:00;;;;;;;10.02;2.95;;;;;;;12.49;60.03;94050.47;5040876;28;20033;-69
2022/12/10 04:36:26;;;;;;;4.90;1.85;;;;;;;12.58;59.75;94036.47;5041492;28;20514;-69
2022/12/10 04:38:51;;;;;;;5.63;1.80;;;;;;;12.66;59.47;94048.72;5039333;28;20029;-69
2022/12/10 04:41:17;;;;;;;6.05;1.90;;;;;;;12.72;59.38;94040.28;5038972;28;20021;-69
2022/12/10 04:43:42;;;;;;;5.57;2.67;;;;;;;12.71;59.34;94036.03;5042015;28;20025;-69
2022/12/10 04:46:09;;;;;;;4.50;1.60;;;;;;;12.79;59.23;94043.88;5037519;28;20483;-69
2022/12/10 04:48:34;;;;;;;5.13;1.75;;;;;;;12.79;59.52;94043.88;5040136;28;20041;-69
2022/12/10 04:51:00;;;;;;;4.53;1.60;;;;;;;12.75;59.64;94037.34;5041386;28;20025;-68
2022/12/10 04:53:25;;;;;;;3.35;1.88;;;;;;;12.79;59.81;94053.47;5040966;28;20037;-68
2022/12/10 04:55:50;;;;;;;5.78;1.65;;;;;;;12.76;60.18;94052.03;5037097;28;20099;-69
2022/12/10 04:58:16;;;;;;;3.17;1.40;;;;;;;12.68;60.81;94047.59;5041671;28;20087;-69
2022/12/10 05:00:41;;;;;;;4.72;1.48;;;;;;;12.67;60.80;94047.75;5045794;28;20033;-71
2022/12/10 05:03:07;;;;;;;5.40;1.80;;;;;;;12.73;60.92;94057.53;5048998;28;20033;-68
2022/12/10 05:05:34;;;;;;;8.48;4.40;;;;;;;12.59;61.42;94068.56;5026855;28;20029;-68
2022/12/10 05:07:59;;;;;;;10.15;4.88;;;;;;;12.49;61.94;94074.72;5044334;28;20122;-71
2022/12/10 05:10:25;;;;;;;9.85;5.00;;;;;;;12.24;62.87;94075.59;5030709;28;20045;-70
2022/12/10 05:12:50;;;;;;;11.23;5.15;;;;;;;11.80;64.37;94079.00;5030779;28;20029;-70
2022/12/10 05:15:16;;;;;;;10.23;5.10;;;;;;;11.70;64.34;94077.47;5040887;28;20087;-69
2022/12/10 05:17:41;;;;;;;16.55;7.13;;;;;;;11.72;64.52;94083.34;5037329;28;20033;-70
2022/12/10 05:20:07;;;;;;;9.90;5.30;;;;;;;11.59;64.96;94066.38;5032745;28;20037;-69
2022/12/10 05:25:17;;;;;;;14.48;5.65;;;;;;;11.24;66.80;94066.41;5040794;28;20039;-69
2022/12/10 05:27:42;;;;;;;12.85;5.03;;;;;;;11.09;67.57;94059.13;5045004;28;20033;-69
2022/12/10 05:30:09;;;;;;;9.80;5.30;;;;;;;11.07;67.70;94050.66;5046752;28;20033;-69
2022/12/10 05:32:35;;;;;;;11.85;7.05;;;;;;;11.06;67.78;94051.63;5038824;28;20033;-69
2022/12/10 05:35:00;;;;;;;12.23;6.30;;;;;;;10.93;68.26;94044.19;5027370;28;20453;-68
2022/12/10 05:37:25;;;;;;;10.93;6.30;;;;;;;10.88;68.75;94061.19;5043837;28;20029;-68
2022/12/10 05:39:51;;;;;;;9.18;6.13;;;;;;;10.88;68.92;94071.56;5039154;28;20044;-68
2022/12/10 05:42:16;;;;;;;10.95;5.95;;;;;;;10.89;68.51;94055.00;5042408;28;20525;-68
2022/12/10 05:44:42;;;;;;;11.02;5.57;;;;;;;10.87;68.62;94064.75;5028686;28;20029;-69
2022/12/10 05:47:07;;;;;;;9.90;5.97;;;;;;;10.67;69.23;94057.06;5044913;28;20043;-68
2022/12/10 05:49:33;;;;;;;10.40;6.60;;;;;;;10.61;69.54;94068.03;5043619;28;20084;-68
2022/12/10 05:51:59;;;;;;;13.60;5.93;;;;;;;10.48;69.51;94062.38;5045965;28;20025;-68
2022/12/10 05:54:24;;;;;;;12.20;5.50;;;;;;;10.54;69.82;94079.16;5043916;28;20552;-68
2022/12/10 05:56:50;;;;;;;10.65;6.78;;;;;;;10.50;69.89;94083.78;5047310;28;20064;-68
2022/12/10 05:59:15;;;;;;;37.08;19.50;;;;;;;10.29;70.47;94077.06;5046511;28;20040;-68
2022/12/10 06:01:41;;;;;;;26.15;15.50;;;;;;;10.34;70.52;94088.81;5046738;28;20025;-68
2022/12/10 06:04:06;;;;;;;36.92;22.48;;;;;;;10.34;70.24;94094.00;5014236;28;20037;-68
2022/12/10 06:06:34;;;;;;;19.77;9.57;;;;;;;10.34;70.39;94091.41;5048507;28;20472;-68
2022/12/10 06:08:59;;;;;;;14.20;7.00;;;;;;;10.23;70.84;94085.41;5038368;28;20042;-68
2022/12/10 06:11:26;;;;;;;12.23;6.30;;;;;;;10.16;71.42;94076.53;5011124;28;20060;-68
2022/12/10 06:13:52;;;;;;;16.67;8.18;;;;;;;10.04;71.98;94078.50;5028363;28;20068;-68
2022/12/10 06:16:17;;;;;;;18.05;8.30;;;;;;;10.01;71.92;94073.59;5012927;28;20119;-68
2022/12/10 06:18:43;;;;;;;16.90;8.35;;;;;;;10.00;72.17;94081.50;5042254;28;20044;-68
2022/12/10 06:21:10;;;;;;;19.65;9.55;;;;;;;9.96;72.56;94069.78;5049132;28;20476;-68
2022/12/10 06:23:36;;;;;;;14.88;9.10;;;;;;;9.99;72.43;94095.44;5013801;28;20503;-68
2022/12/10 06:26:09;;;;;;;12.50;7.35;;;;;;;9.88;73.07;94093.03;5028698;28;20041;-70
2022/12/10 06:28:35;;;;;;;14.93;8.57;;;;;;;9.98;72.85;94101.59;5005884;28;20034;-69
2022/12/10 06:31:01;;;;;;;15.90;8.68;;;;;;;9.93;72.66;94102.03;5029759;28;20112;-69
2022/12/10 06:33:26;;;;;;;17.95;10.27;;;;;;;9.92;73.05;94099.56;5044888;28;20036;-68
2022/12/10 06:35:52;;;;;;;15.30;9.52;;;;;;;9.88;73.32;94095.63;5028471;28;20076;-68
2022/12/10 06:38:17;;;;;;;15.45;9.27;;;;;;;9.95;73.00;94100.09;5042082;28;20044;-69
2022/12/10 06:40:44;;;;;;;21.05;10.05;;;;;;;9.94;73.11;94097.63;5044489;28;20470;-68
2022/12/10 06:43:09;;;;;;;12.18;6.82;;;;;;;9.91;73.70;94090.13;5044401;28;20518;-68
2022/12/10 06:45:39;;;;;;;14.13;7.80;;;;;;;9.93;73.74;94096.00;5046040;28;20040;-68
2022/12/10 06:48:04;;;;;;;10.85;7.07;;;;;;;9.73;74.99;94080.50;5038953;28;20059;-68
2022/12/10 06:50:30;;;;;;;15.30;6.97;;;;;;;9.76;74.87;94075.03;5032634;28;20036;-68
2022/12/10 06:52:55;;;;;;;9.90;6.60;;;;;;;9.81;75.15;94082.41;5049525;28;20098;-68
2022/12/10 06:55:21;;;;;;;10.93;6.90;;;;;;;9.74;75.44;94087.31;5048692;28;20087;-68
2022/12/10 06:57:46;;;;;;;12.07;7.03;;;;;;;9.83;75.40;94085.66;5047501;28;20083;-69
2022/12/10 07:00:13;;;;;;;13.38;7.22;;;;;;;9.94;75.56;94100.22;5029750;28;20029;-69
2022/12/10 07:02:38;;;;;;;9.38;6.35;;;;;;;9.84;75.79;94092.50;5047545;28;20056;-67
2022/12/10 07:05:04;;;;;;;11.02;6.70;;;;;;;9.66;76.81;94100.16;5027822;28;20041;-69
2022/12/10 07:07:29;;;;;;;15.15;7.00;;;;;;;9.56;77.36;94095.00;5043940;28;20106;-69
2022/12/10 07:09:54;;;;;;;13.23;6.90;;;;;;;9.69;77.06;94112.84;5048643;28;20495;-68
2022/12/10 07:12:20;;;;;;;13.70;7.30;;;;;;;9.72;76.64;94099.63;5045327;28;20091;-68
2022/12/10 07:14:45;;;;;;;16.58;10.68;;;;;;;9.80;77.01;94102.31;5049731;28;20040;-68
2022/12/10 07:17:11;;;;;;;16.23;8.65;;;;;;;9.76;76.92;94095.78;5049455;28;20032;-68
2022/12/10 07:19:36;;;;;;;11.40;6.65;;;;;;;9.71;77.05;94097.16;5031336;28;20044;-69
2022/12/10 07:22:02;;;;;;;12.77;7.45;;;;;;;9.75;76.85;94093.31;5032396;28;20031;-68
2022/12/10 07:24:27;;;;;;;13.88;8.63;;;;;;;9.72;77.14;94101.38;5027576;28;20503;-67
2022/12/10 07:26:53;;;;;;;10.95;7.65;;;;;;;9.71;77.10;94097.16;5032985;28;20029;-68
2022/12/10 07:29:19;;;;;;;15.85;8.32;;;;;;;9.50;77.50;94073.97;5038423;28;20033;-68
2022/12/10 07:31:45;;;;;;;15.55;7.22;;;;;;;9.43;78.42;94075.50;5027662;28;20480;-68
2022/12/10 07:34:11;;;;;;;10.05;6.22;;;;;;;9.55;77.79;94084.75;5051459;28;20135;-68
2022/12/10 07:36:36;;;;;;;13.05;7.20;;;;;;;9.60;77.66;94069.59;5046840;28;20022;-68
2022/12/10 07:39:07;;;;;;;11.52;6.63;;;;;;;9.58;78.10;94066.31;5034388;28;20033;-68
2022/12/10 07:41:33;;;;;;;11.63;5.85;;;;;;;9.67;77.89;94054.28;5050240;28;20059;-69
2022/12/10 07:43:58;;;;;;;14.57;6.43;;;;;;;9.70;78.29;94065.22;5017590;28;20033;-68
2022/12/10 07:46:26;;;;;;;14.18;6.95;;;;;;;9.82;78.21;94084.03;5031608;28;20257;-69
2022/12/10 07:48:51;;;;;;;10.75;7.53;;;;;;;9.85;77.97;94073.34;5014948;28;20052;-68
2022/12/10 07:51:18;;;;;;;18.70;11.43;;;;;;;9.89;77.91;94079.06;5035529;28;20487;-70
2022/12/10 07:53:43;;;;;;;15.48;9.23;;;;;;;9.84;78.26;94071.75;5022634;28;20047;-68
2022/12/10 07:56:09;;;;;;;14.38;7.22;;;;;;;9.87;77.80;94068.03;5035914;28;20037;-68
2022/12/10 07:58:35;;;;;;;13.68;8.02;;;;;;;9.92;78.12;94064.06;5029114;28;20033;-68
2022/12/10 08:01:11;;;;;;;30.23;13.30;;;;;;;9.90;78.47;94073.75;5047691;28;20029;-69
2022/12/10 08:03:36;;;;;;;19.17;11.15;;;;;;;9.82;78.84;94063.28;5047495;28;20040;-71
2022/12/10 08:06:13;;;;;;;16.10;7.43;;;;;;;9.72;78.09;94052.94;5045051;28;20517;-68
2022/12/10 08:08:39;;;;;;;13.57;8.35;;;;;;;9.68;78.42;94055.94;5027405;28;20037;-69
2022/12/10 08:11:05;;;;;;;31.13;15.25;;;;;;;9.88;77.32;94051.50;5014218;28;20025;-68
2022/12/10 08:13:30;;;;;;;18.50;10.98;;;;;;;9.96;77.38;94059.41;5038352;28;20406;-69
2022/12/10 08:16:07;;;;;;;17.83;10.45;;;;;;;10.02;77.30;94053.66;5028895;28;20040;-68
2022/12/10 08:18:33;;;;;;;15.23;10.45;;;;;;;9.97;77.30;94038.53;5011809;28;20044;-68
2022/12/10 08:21:01;;;;;;;19.50;10.52;;;;;;;10.05;77.21;94032.59;5020765;28;20045;-69
2022/12/10 08:23:26;;;;;;;14.70;8.95;;;;;;;10.13;76.70;94029.28;5033410;28;20033;-69
2022/12/10 08:25:52;;;;;;;11.60;8.05;;;;;;;10.18;76.69;94027.91;5039484;28;20418;-70
2022/12/10 08:28:17;;;;;;;27.00;17.42;;;;;;;10.24;76.55;94031.69;5038773;28;20033;-70
2022/12/10 08:30:47;;;;;;;23.80;15.50;;;;;;;10.29;76.70;94027.75;5038193;28;20333;-70
2022/12/10 08:33:12;;;;;;;19.50;11.93;;;;;;;10.27;76.54;94024.47;5033506;28;20106;-69
2022/12/10 08:35:38;;;;;;;19.27;10.23;;;;;;;10.38;76.62;94033.03;5040123;28;20230;-69
2022/12/10 08:38:03;;;;;;;18.98;11.48;;;;;;;10.42;76.59;94029.19;5042181;28;20462;-69
2022/12/10 08:40:29;;;;;;;31.20;19.20;;;;;;;10.46;76.37;94026.16;5038137;28;20035;-68
2022/12/10 08:42:54;;;;;;;31.08;18.20;;;;;;;10.55;76.33;94024.47;5023519;28;20503;-69
2022/12/10 08:45:19;;;;;;;31.52;20.30;;;;;;;10.55;76.01;94029.66;5038345;28;20400;-68
2022/12/10 08:47:45;;;;;;;26.50;17.88;;;;;;;10.45;76.54;94023.72;5041542;28;20032;-68
2022/12/10 08:50:10;;;;;;;30.08;16.63;;;;;;;10.45;76.36;94002.94;5037877;28;20033;-69
2022/12/10 08:52:36;;;;;;;26.50;16.50;;;;;;;10.27;77.06;94001.09;5042847;28;20036;-68
2022/12/10 08:55:02;;;;;;;25.02;14.90;;;;;;;10.27;77.11;93974.34;5042395;28;20044;-69
2022/12/10 08:57:27;;;;;;;26.00;15.43;;;;;;;10.40;77.01;93995.59;5037653;28;20144;-68
2022/12/10 08:59:53;;;;;;;24.08;16.23;;;;;;;10.50;76.29;94000.69;5036038;28;20475;-68
2022/12/10 09:02:18;;;;;;;104.20;41.28;;;;;;;10.58;76.18;94003.38;5040571;28;20347;-68
2022/12/10 09:04:46;;;;;;;33.55;16.90;;;;;;;10.49;76.43;93994.69;5038965;28;20036;-68
2022/12/10 09:07:11;;;;;;;24.15;14.75;;;;;;;10.41;76.75;93992.00;5047362;28;21757;-68
2022/12/10 09:09:37;;;;;;;29.55;15.68;;;;;;;10.46;76.74;94013.16;5044883;28;20049;-69
2022/12/10 09:12:03;;;;;;;22.63;14.63;;;;;;;10.45;76.93;93988.19;5038094;28;20033;-68
2022/12/10 09:14:28;;;;;;;26.98;15.20;;;;;;;10.52;76.70;93985.81;5041832;28;20479;-68
2022/12/10 09:16:53;;;;;;;25.25;14.93;;;;;;;10.46;77.09;93978.59;5032954;28;20030;-69
2022/12/10 09:19:19;;;;;;;24.95;14.48;;;;;;;10.50;77.43;93974.72;5012779;28;20087;-69
2022/12/10 09:21:45;;;;;;;21.23;13.70;;;;;;;10.65;77.17;93968.09;5033773;28;20036;-69
2022/12/10 09:24:10;;;;;;;25.30;14.88;;;;;;;10.89;76.34;93983.09;5015291;28;20041;-70
2022/12/10 09:26:36;;;;;;;22.40;14.38;;;;;;;11.00;76.23;93970.81;5038701;28;20083;-70
2022/12/10 09:29:01;;;;;;;26.02;16.08;;;;;;;10.99;75.62;93974.38;5035870;28;20033;-69
2022/12/10 09:31:27;;;;;;;22.02;14.65;;;;;;;11.06;75.42;93970.22;5035580;28;20032;-70
2022/12/10 09:33:53;;;;;;;22.02;13.57;;;;;;;11.03;74.97;93975.72;5027807;28;20052;-71
2022/12/10 09:36:18;;;;;;;24.77;14.75;;;;;;;11.08;75.59;93974.28;5032119;28;20033;-72
2022/12/10 09:38:44;;;;;;;23.88;15.30;;;;;;;11.14;75.30;93972.88;5040366;28;20047;-70
2022/12/10 09:41:25;;;;;;;25.02;15.70;;;;;;;11.17;75.21;93964.78;5034025;28;20478;-69
2022/12/10 09:43:57;;;;;;;22.85;14.65;;;;;;;11.11;75.21;93968.78;5038287;28;20056;-71
2022/12/10 09:46:40;;;;;;;22.27;12.80;;;;;;;11.12;75.21;93965.25;5040235;28;20403;-69
2022/12/10 09:50:00;;;;;;;19.98;13.70;;;;;;;11.31;74.52;93953.00;5032620;28;20041;-71
2022/12/10 09:52:35;;;;;;;21.83;13.10;;;;;;;11.29;74.73;93944.56;5031936;28;20033;-70
2022/12/10 09:55:09;;;;;;;20.90;13.63;;;;;;;11.49;73.95;93951.19;5018662;28;20064;-69
2022/12/10 09:57:42;;;;;;;21.33;13.65;;;;;;;11.55;73.82;93929.75;5022138;28;20045;-69
2022/12/10 10:00:38;;;;;;;22.15;14.23;;;;;;;11.68;72.45;93912.94;5017219;28;20041;-69
2022/12/10 10:03:03;;;;;;;23.55;13.52;;;;;;;11.71;72.50;93918.63;5033718;28;20025;-69
2022/12/10 10:05:40;;;;;;;22.02;14.55;;;;;;;11.70;72.79;93934.38;5047232;28;20044;-69
2022/12/10 10:08:32;;;;;;;23.55;14.90;;;;;;;11.68;73.05;93937.16;5047864;28;20021;-68
2022/12/10 10:10:58;;;;;;;26.70;17.30;;;;;;;11.82;72.75;93930.56;5031139;28;20499;-69
2022/12/10 10:13:38;;;;;;;28.05;17.40;;;;;;;11.60;73.71;93911.91;5048532;28;20029;-69
2022/12/10 10:16:27;;;;;;;23.27;13.88;;;;;;;11.80;72.97;93922.91;5030657;28;20495;-68
2022/12/10 10:19:01;;;;;;;18.85;13.15;;;;;;;11.99;72.51;93924.47;5047736;28;20037;-68
2022/12/10 10:21:28;;;;;;;20.00;13.07;;;;;;;12.15;71.69;93928.94;5050791;28;20033;-69
2022/12/10 10:23:54;;;;;;;26.98;14.90;;;;;;;12.13;71.41;93917.84;5034551;28;20044;-69
2022/12/10 10:26:20;;;;;;;25.60;15.02;;;;;;;12.13;71.91;93933.47;5050811;28;20048;-69
2022/12/10 10:28:45;;;;;;;22.48;13.45;;;;;;;11.98;71.67;93911.59;5052042;28;20502;-69
2022/12/10 10:31:23;;;;;;;22.02;13.13;;;;;;;12.04;71.91;93904.00;5052733;28;20036;-72
2022/12/10 10:33:56;;;;;;;22.40;14.93;;;;;;;12.24;71.63;93911.53;5036313;28;20513;-69
2022/12/10 10:36:26;;;;;;;21.73;12.90;;;;;;;12.24;71.46;93916.75;5052717;28;20063;-69
2022/12/10 10:38:51;;;;;;;22.85;12.90;;;;;;;12.03;71.93;93888.53;5053808;28;20037;-69
2022/12/10 10:41:17;;;;;;;20.63;12.52;;;;;;;12.25;71.67;93884.50;5035935;28;20067;-68
2022/12/10 10:43:47;;;;;;;20.38;12.45;;;;;;;12.56;70.43;93895.13;5052476;28;20091;-68
2022/12/10 10:46:17;;;;;;;22.27;11.80;;;;;;;12.46;70.02;93874.47;5036559;28;20029;-69
2022/12/10 10:48:43;;;;;;;19.63;10.33;;;;;;;12.57;69.81;93862.91;5035949;28;20044;-69
2022/12/10 10:51:23;;;;;;;16.63;9.82;;;;;;;12.62;70.00;93859.81;5052405;28;20290;-68
2022/12/10 10:53:54;;;;;;;22.42;14.13;;;;;;;12.72;69.93;93861.28;5052585;28;20075;-69
2022/12/10 10:56:23;;;;;;;19.27;12.02;;;;;;;12.93;68.29;93868.63;5052137;28;20067;-69
2022/12/10 10:59:00;;;;;;;19.08;11.98;;;;;;;12.97;68.40;93856.06;5052259;28;20033;-69
2022/12/10 11:01:42;;;;;;;22.83;13.55;;;;;;;13.14;69.00;93856.84;5052169;28;20402;-69
2022/12/10 11:04:07;;;;;;;16.75;10.10;;;;;;;13.19;67.41;93851.97;5052371;28;20052;-69
2022/12/10 11:06:33;;;;;;;14.65;9.82;;;;;;;13.16;67.37;93842.66;5018810;28;20076;-69
2022/12/10 11:08:58;;;;;;;15.90;10.30;;;;;;;13.25;67.60;93858.31;5051988;28;20037;-69
2022/12/10 11:11:40;;;;;;;16.50;10.63;;;;;;;13.38;67.43;93849.00;5051988;28;20033;-69
2022/12/10 11:14:26;;;;;;;19.92;10.82;;;;;;;13.35;67.93;93812.84;5052233;28;20453;-69
2022/12/10 11:17:22;;;;;;;21.20;12.20;;;;;;;13.61;67.22;93835.25;5051781;28;20025;-70
2022/12/10 11:19:53;;;;;;;20.05;12.95;;;;;;;13.68;67.09;93811.88;5047561;28;20041;-70
2022/12/10 11:22:23;;;;;;;25.25;15.15;;;;;;;13.63;67.36;93800.16;5053034;28;20478;-70
2022/12/10 11:24:49;;;;;;;23.13;15.40;;;;;;;13.76;67.38;93811.84;5018868;28;20131;-70
2022/12/10 11:27:51;;;;;;;22.33;13.70;;;;;;;13.99;66.38;93801.47;5018627;28;20190;-70
2022/12/10 11:30:24;;;;;;;21.08;13.60;;;;;;;13.91;67.21;93789.25;5037666;28;20094;-72
2022/12/10 11:33:24;;;;;;;24.15;13.85;;;;;;;13.99;66.96;93796.25;5035238;28;20033;-70
2022/12/10 11:36:02;;;;;;;23.17;14.73;;;;;;;14.05;66.38;93785.09;5051573;28;20029;-70
2022/12/10 11:38:56;;;;;;;20.75;12.52;;;;;;;14.14;65.92;93797.09;5051447;28;20029;-70
2022/12/10 11:41:30;;;;;;;21.27;13.93;;;;;;;14.15;66.04;93785.69;5052246;28;20556;-70
2022/12/10 11:44:23;;;;;;;24.23;16.77;;;;;;;14.12;67.06;93775.56;5051480;28;20032;-70
2022/12/10 11:46:52;;;;;;;24.63;15.05;;;;;;;14.18;66.50;93785.34;5051389;28;20049;-70
2022/12/10 11:49:20;;;;;;;21.80;14.55;;;;;;;14.17;66.82;93794.16;5052890;28;20127;-70